X  ChiudiMetar Aviation Dati Meteorologici     LIPZ Venice Marco Polo

Temperatura

16°C Temperatura

14°C Punto di rugiada

88% Umidità



Vento

11 KM/H

 7 MPH

 3 M/S

 6 KTS



90°
Est
Condizioni attuali

Parzialmente nuvoloso Parzialmente nuvoloso
Pressione atmosferica 1003.92 (hPa) - 29.65 (in)
Visibilità 6.2 (mi) - 10 (km)
Aeroporto
Codice Aeroporto LIPZ

Posizione Venice Marco Polo 26 (km)

Metar:
LIPZ 191620Z 09006KT 9999 FEW010 SCT045 16/14 Q1004 NOSIG

Ore: 19-05-2019 18:20